Latest Weather Observations for Bairnsdale

IDV60801

Issued at 3:32 am EDT Wednesday 22 February 2017 (issued every 30 minutes, with the page automatically refreshed every 10 minutes)

About weather observations | Map of weather stations | Latest weather observations for VIC | Other Formats
Station Details ID: 085279 Name: BAIRNSDALE AIRPORT Lat: -37.88 Lon: 147.57 Height: 49.4 m
Data from the previous 72 hours. | See also: Recent months at Bairnsdale
Date/Time
EDT
Temp
°C
App
Temp
°C
Dew
Point
°C
Rel
Hum
%
Delta-T
°C
Wind Press
QNH
hPa
Press
MSL
hPa
Rain since
9am
mm
Dir  Spd
km/h
Gust
km/h
Spd
kts
Gust
kts
22/03:30am 10.0 8.1 9.1 94 0.4 NW 9 13 5 7 1018.1 1018.0 0.0
22/03:00am 10.2 8.4 9.3 94 0.4 NW 9 13 5 7 1018.5 1018.4 0.0
22/02:30am 10.3 9.0 9.1 92 0.6 NNW 6 7 3 4 1018.7 1018.6 0.0
22/02:00am 11.1 9.8 9.2 88 0.9 NE 6 7 3 4 1019.1 1019.0 0.0
22/01:30am 13.1 12.0 10.6 85 1.3 E 7 9 4 5 1019.6 1019.5 0.0
22/01:00am 13.2 12.2 10.9 86 1.2 E 7 7 4 4 1020.0 1019.9 0.0
22/12:30am 12.2 11.2 10.3 88 1.0 E 6 6 3 3 1020.5 1020.4 0.0
22/12:00am 13.5 12.1 10.9 84 1.4 ENE 9 11 5 6 1020.6 1020.5 0.0
 
Date/Time
EDT
Temp
°C
App
Temp
°C
Dew
Point
°C
Rel
Hum
%
Delta-T
°C
Wind Press
QNH
hPa
Press
MSL
hPa
Rain since
9am
mm
Dir  Spd
km/h
Gust
km/h
Spd
kts
Gust
kts
21/11:30pm 13.9 12.2 11.1 83 1.5 ENE 11 15 6 8 1020.8 1020.7 0.0
21/11:00pm 14.4 12.7 11.2 81 1.7 ENE 11 15 6 8 1021.1 1021.0 0.0
21/10:30pm 14.8 12.8 11.6 81 1.7 ENE 13 15 7 8 1021.1 1021.0 0.0
21/10:00pm 14.4 13.1 11.2 81 1.7 ENE 9 13 5 7 1021.1 1021.0 0.0
21/09:30pm 14.5 12.7 10.9 79 1.9 E 11 13 6 7 1021.1 1021.0 0.0
21/09:00pm 15.0 13.6 11.0 77 2.1 ESE 9 11 5 6 1020.8 1020.7 0.0
21/08:30pm 15.7 14.4 11.1 74 2.5 ESE 9 11 5 6 1020.5 1020.4 0.0
21/08:00pm 16.8 14.7 11.1 69 3.1 ESE 13 17 7 9 1020.0 1019.9 0.0
21/07:30pm 17.8 14.9 11.1 65 3.6 ESE 17 24 9 13 1019.6 1019.5 0.0
21/07:00pm 18.6 15.8 11.2 62 4.0 ESE 17 24 9 13 1019.3 1019.2 0.0
21/06:30pm 19.4 16.2 11.2 59 4.5 ESE 19 24 10 13 1019.2 1019.1 0.0
21/06:00pm 20.0 16.9 11.5 58 4.7 ESE 19 26 10 14 1018.9 1018.8 0.0
21/05:30pm 20.3 17.4 11.0 55 5.1 SE 17 24 9 13 1019.0 1018.9 0.0
21/05:00pm 20.5 17.2 10.9 54 5.2 ESE 19 26 10 14 1019.2 1019.1 0.0
21/04:30pm 20.6 16.4 11.2 55 5.2 SE 24 33 13 18 1019.1 1019.0 0.0
21/04:00pm 20.8 16.8 10.3 51 5.7 SE 22 33 12 18 1019.2 1019.1 0.0
21/03:30pm 21.7 18.3 11.1 51 5.9 ESE 20 35 11 19 1019.1 1019.0 0.0
21/03:00pm 23.4 20.2 8.3 38 8.0 SW 15 26 8 14 1019.4 1019.3 0.0
21/02:30pm 22.4 18.9 7.4 38 7.8 SSW 15 28 8 15 1019.7 1019.6 0.0
21/02:00pm 22.6 20.1 8.3 40 7.5 W 11 28 6 15 1020.1 1020.0 0.0
21/01:30pm 21.1 17.7 7.7 42 6.9 S 15 28 8 15 1020.3 1020.2 0.0
21/01:00pm 21.3 18.0 8.2 43 6.8 W 15 26 8 14 1020.4 1020.3 0.0
21/12:30pm 21.3 17.9 6.0 37 7.7 WNW 13 19 7 10 1020.7 1020.6 0.0
21/12:00pm 20.8 17.2 6.7 40 7.1 SW 15 24 8 13 1021.0 1020.9 0.0
21/11:30am 19.5 15.4 6.3 42 6.6 W 17 28 9 15 1021.3 1021.2 0.0
21/11:00am 19.1 15.5 6.9 45 6.1 WSW 15 24 8 13 1021.5 1021.4 0.0
21/10:30am 18.7 15.6 8.7 52 5.2 WSW 15 20 8 11 1021.5 1021.4 0.0
21/10:00am 17.7 15.0 9.1 57 4.5 WSW 13 24 7 13 1021.5 1021.4 0.0
21/09:30am 16.4 14.1 8.9 61 3.9 NW 11 15 6 8 1021.4 1021.3 0.0
21/09:00am 14.4 11.6 8.4 67 3.0 NW 13 17 7 9 1021.1 1021.0 1.8
21/08:30am 12.2 9.3 8.3 77 1.9 NW 13 17 7 9 1020.9 1020.8 1.8
21/08:00am 9.9 7.3 7.7 86 1.1 NW 11 15 6 8 1020.5 1020.4 1.8
21/07:30am 8.5 5.7 6.8 89 0.8 NNW 11 13 6 7 1019.9 1019.8 1.8
21/07:00am 8.0 4.7 6.5 90 0.7 NW 13 17 7 9 1019.6 1019.5 1.6
21/06:30am 8.0 4.7 6.6 91 0.6 NW 13 17 7 9 1019.2 1019.1 1.6
21/06:00am 7.7 4.4 6.2 90 0.7 NW 13 15 7 8 1019.0 1018.9 1.6
21/05:30am 8.7 5.5 7.0 89 0.8 NW 13 17 7 9 1018.6 1018.5 1.6
21/05:00am 8.5 5.4 7.1 91 0.7 NW 13 17 7 9 1018.4 1018.3 1.6
21/04:30am 8.6 5.8 7.1 90 0.7 NW 11 15 6 8 1018.1 1018.0 1.6
21/04:00am 9.4 6.4 7.7 89 0.8 WNW 13 17 7 9 1018.0 1017.9 1.6
21/03:30am 9.6 6.6 7.7 88 0.9 WNW 13 17 7 9 1017.8 1017.7 1.6
21/03:00am 9.5 6.5 7.6 88 0.9 WNW 13 15 7 8 1017.8 1017.7 1.6
21/02:30am 9.5 6.8 7.3 86 1.0 NW 11 13 6 7 1017.8 1017.7 1.6
21/02:00am 10.4 7.8 7.8 84 1.3 WNW 11 13 6 7 1017.7 1017.6 1.6
21/01:30am 10.8 8.2 7.9 82 1.4 NW 11 13 6 7 1017.8 1017.7 1.6
21/01:00am 13.7 9.7 8.3 70 2.7 W 19 24 10 13 1017.7 1017.6 1.6
21/12:30am 14.0 9.9 8.6 70 2.7 W 20 30 11 16 1017.7 1017.6 1.6
21/12:00am 13.8 9.9 8.8 72 2.5 W 19 30 10 16 1017.5 1017.4 1.6
 
Date/Time
EDT
Temp
°C
App
Temp
°C
Dew
Point
°C
Rel
Hum
%
Delta-T
°C
Wind Press
QNH
hPa
Press
MSL
hPa
Rain since
9am
mm
Dir  Spd
km/h
Gust
km/h
Spd
kts
Gust
kts
20/11:30pm 14.4 10.0 8.8 69 2.8 W 22 30 12 16 1017.3 1017.2 1.6
20/11:00pm 14.7 9.4 8.6 67 3.1 WSW 26 35 14 19 1017.1 1017.0 1.6
20/10:30pm 13.9 10.0 8.5 70 2.7 W 19 28 10 15 1016.9 1016.8 1.6
20/10:00pm 13.7 10.3 9.0 73 2.4 WSW 17 22 9 12 1016.7 1016.6 1.6
20/09:30pm 13.5 10.1 9.2 75 2.2 WSW 17 22 9 12 1016.2 1016.1 1.6
20/09:00pm 14.2 10.8 9.2 72 2.6 WSW 17 22 9 12 1015.8 1015.7 1.6
20/08:30pm 14.6 11.5 9.0 69 2.9 W 15 20 8 11 1015.3 1015.2 1.6
20/08:00pm 15.6 12.2 9.1 65 3.3 WSW 17 24 9 13 1014.8 1014.6 1.6
20/07:30pm 16.2 12.5 9.4 64 3.5 WSW 19 30 10 16 1014.2 1014.0 1.6
20/07:00pm 16.4 10.9 9.3 63 3.7 WSW 28 39 15 21 1013.7 1013.5 1.6
20/06:44pm 16.7 11.0 8.4 58 4.2 W 28 48 15 26 1013.4 1013.2 1.6
20/06:30pm 17.0 13.2 9.7 62 3.8 W 20 28 11 15 1013.3 1013.1 1.6
20/06:00pm 16.9 12.0 9.8 63 3.7 W 26 33 14 18 1013.0 1012.8 1.6
20/05:48pm 16.1 10.9 10.4 69 3.0 W 28 46 15 25 1013.0 1012.8 1.6
20/05:30pm 16.5 11.8 10.8 69 3.0 WSW 26 37 14 20 1012.7 1012.5 1.6
20/05:00pm 15.7 11.5 11.1 74 2.5 WSW 24 43 13 23 1012.4 1012.2 1.6
20/04:30pm 13.4 9.3 11.3 87 1.1 W 24 41 13 22 1012.3 1012.1 1.6
20/04:29pm 13.4 8.8 11.1 86 1.2 WSW 26 41 14 22 1012.3 1012.1 1.6
20/04:14pm 13.4 7.4 10.9 85 1.3 WSW 33 57 18 31 1012.3 1012.1 1.4
20/04:09pm 14.6 9.3 11.2 80 1.8 WSW 30 57 16 31 1012.3 1012.1 0.8
20/04:00pm 18.4 14.4 11.9 66 3.6 W 24 39 13 21 1011.6 1011.4 0.8
20/03:32pm 15.9 13.3 13.7 87 1.2 WSW 20 28 11 15 1011.6 1011.4 0.8
20/03:30pm 15.2 11.9 12.9 86 1.3 WSW 22 30 12 16 1011.7 1011.5 0.8
20/03:22pm 12.8 6.7 10.3 85 1.3 WSW 33 52 18 28 1011.8 1011.6 0.6
20/03:20pm 12.9 6.4 10.4 85 1.3 WSW 35 52 19 28 1011.9 1011.7 0.6
20/03:06pm 16.6 10.5 9.8 64 3.6 WSW 32 50 17 27 1011.3 1011.1 0.2
20/03:00pm 18.4 12.1 7.5 49 5.5 WSW 30 43 16 23 1011.1 1010.9 0.2
20/02:30pm 16.5 10.9 11.4 72 2.8 SW 32 43 17 23 1011.2 1011.0 0.2
20/02:13pm 15.9 9.8 9.6 66 3.3 WSW 32 46 17 25 1011.0 1010.8 0.2
20/02:00pm 17.8 11.7 8.1 53 5.0 WSW 30 43 16 23 1010.8 1010.6 0.2
20/01:30pm 18.3 11.9 6.8 47 5.8 W 30 48 16 26 1010.7 1010.5 0.0
20/01:19pm 19.2 13.5 8.5 50 5.6 WSW 28 46 15 25 1010.8 1010.6 0.0
20/01:00pm 19.7 13.6 8.4 48 5.9 W 30 46 16 25 1010.6 1010.4 0.0
20/12:31pm 20.0 13.0 8.4 47 6.1 WNW 35 54 19 29 1010.5 1010.3 0.0
20/12:30pm 19.2 11.7 7.9 48 5.8 WNW 37 54 20 29 1010.5 1010.3 0.0
20/12:00pm 17.8 10.3 6.3 47 5.7 W 35 57 19 31 1010.5 1010.3 0.0
20/11:54am 17.9 10.9 6.1 46 5.8 W 32 57 17 31 1010.4 1010.2 0.0
20/11:30am 17.1 10.8 7.5 53 4.8 W 30 41 16 22 1010.6 1010.4 0.0
20/11:00am 16.1 9.6 6.5 53 4.7 W 30 43 16 23 1010.5 1010.3 0.0
20/10:38am 16.4 10.0 7.1 54 4.6 W 30 48 16 26 1010.5 1010.3 0.0
20/10:30am 16.8 9.8 6.9 52 4.9 W 33 48 18 26 1010.3 1010.1 0.0
20/10:15am 15.7 9.6 6.7 55 4.4 W 28 46 15 25 1010.4 1010.2 0.0
20/10:00am 16.3 9.0 7.0 54 4.6 WNW 35 44 19 24 1010.2 1010.0 0.0
20/09:30am 14.5 7.7 7.1 61 3.6 W 32 48 17 26 1010.0 1009.8 0.0
20/09:26am 14.9 8.6 7.2 60 3.8 WNW 30 48 16 26 1010.0 1009.8 0.0
20/09:00am 14.1 8.8 6.9 62 3.5 WNW 24 32 13 17 1009.7 1009.5 8.2
20/08:30am 12.3 9.6 9.1 81 1.6 WNW 13 17 7 9 1009.6 1009.4 8.2
20/08:00am 10.3 6.8 7.4 82 1.4 WNW 15 20 8 11 1009.2 1009.0 8.2
20/07:30am 9.3 5.8 7.1 86 1.0 WNW 15 20 8 11 1008.9 1008.7 8.2
20/07:00am 8.4 4.7 6.5 88 0.9 WNW 15 19 8 10 1008.9 1008.7 8.2
20/06:30am 7.7 3.9 5.7 87 0.9 NW 15 20 8 11 1008.6 1008.4 8.2
20/06:00am 7.0 3.1 5.3 89 0.8 WNW 15 17 8 9 1008.3 1008.2 8.2
20/05:30am 7.1 4.0 5.6 90 0.7 NW 11 15 6 8 1008.0 1007.9 8.2
20/05:00am 7.1 3.7 5.7 91 0.6 NW 13 15 7 8 1008.0 1007.9 8.2
20/04:30am 7.1 3.7 5.7 91 0.6 NW 13 15 7 8 1007.9 1007.8 8.2
20/04:00am 7.0 4.3 5.6 91 0.6 WNW 9 11 5 6 1008.0 1007.9 8.2
20/03:30am 7.4 4.0 5.9 90 0.7 WNW 13 15 7 8 1007.8 1007.7 8.2
20/03:00am 7.2 4.2 5.8 91 0.6 WNW 11 15 6 8 1008.0 1007.9 8.2
20/02:30am 7.8 4.5 6.3 90 0.7 WNW 13 17 7 9 1008.1 1008.0 8.2
20/02:00am 8.0 4.9 7.1 94 0.4 WNW 13 15 7 8 1008.5 1008.3 8.2
20/01:30am 8.1 5.4 7.2 94 0.4 NW 11 13 6 7 1008.7 1008.5 8.2
20/01:00am 8.5 5.5 7.6 94 0.4 WNW 13 15 7 8 1008.7 1008.5 8.2
20/12:30am 9.4 7.4 8.5 94 0.4 NW 9 13 5 7 1009.3 1009.1 8.2
20/12:00am 9.7 7.7 8.8 94 0.4 NW 9 11 5 6 1009.3 1009.1 8.2
 
Date/Time
EDT
Temp
°C
App
Temp
°C
Dew
Point
°C
Rel
Hum
%
Delta-T
°C
Wind Press
QNH
hPa
Press
MSL
hPa
Rain since
9am
mm
Dir  Spd
km/h
Gust
km/h
Spd
kts
Gust
kts
19/11:30pm 10.1 8.3 9.3 95 0.4 NW 9 13 5 7 1009.0 1008.8 8.2
19/11:00pm 10.2 9.3 9.3 94 0.4 NNW 4 7 2 4 1009.2 1009.0 8.2
19/10:30pm 10.6 9.3 9.8 95 0.4 NNE 7 9 4 5 1009.3 1009.1 8.2
19/10:00pm 10.6 8.9 9.8 95 0.4 N 9 11 5 6 1009.4 1009.2 8.0
19/09:30pm 10.3 8.5 9.5 95 0.4 NNW 9 15 5 8 1010.1 1009.9 7.4
19/09:00pm 9.9 7.6 9.0 94 0.4 NNE 11 13 6 7 1009.5 1009.3 7.2
19/08:30pm 9.9 8.5 8.7 92 0.6 NNW 6 9 3 5 1009.3 1009.1 6.8
19/08:26pm 9.9 8.5 8.7 92 0.6 N 6 11 3 6 1009.3 1009.1 6.8
19/08:07pm 9.7 8.0 8.5 92 0.6 WNW 7 9 4 5 1009.3 1009.1 6.2
19/08:00pm 9.8 8.1 8.4 91 0.7 WNW 7 9 4 5 1009.2 1009.0 5.6
19/07:30pm 10.1 6.5 8.4 89 0.8 WSW 17 26 9 14 1008.7 1008.5 3.6
19/07:00pm 10.5 6.7 9.1 91 0.7 SW 19 28 10 15 1008.6 1008.4 2.4
19/06:30pm 11.1 7.1 8.3 83 1.4 WSW 19 28 10 15 1008.2 1008.1 0.6
19/06:00pm 11.3 6.5 8.7 84 1.3 SW 24 32 13 17 1007.7 1007.6 0.4
19/05:30pm 12.9 7.7 7.4 69 2.7 SW 24 30 13 16 1007.4 1007.3 0.2
19/05:00pm 13.8 7.6 6.2 60 3.6 WSW 28 37 15 20 1007.1 1007.0 0.2
19/04:30pm 14.9 8.1 6.7 58 4.0 WSW 32 44 17 24 1007.1 1007.0 0.2
19/04:00pm 16.7 9.8 6.5 51 5.0 SW 32 39 17 21 1006.3 1006.2 0.2
19/03:30pm 18.4 11.5 7.2 48 5.7 WSW 33 46 18 25 1005.9 1005.8 0.2
19/03:11pm 20.7 14.0 5.5 37 7.5 SW 30 46 16 25 1005.6 1005.5 0.2
19/03:00pm 21.5 16.2 5.0 34 8.2 SW 22 32 12 17 1005.5 1005.4 0.2
19/02:30pm 21.2 15.6 1.5 27 9.1 W 20 37 11 20 1005.7 1005.6 0.2
19/02:00pm 20.6 16.1 2.4 30 8.5 NNW 15 24 8 13 1006.1 1006.0 0.2
19/01:30pm 22.4 17.7 3.0 28 9.3 NW 17 30 9 16 1006.5 1006.4 0.2
19/01:00pm 20.2 15.4 2.5 31 8.3 WNW 17 24 9 13 1007.0 1006.9 0.2
19/12:30pm 20.2 15.5 3.0 32 8.1 W 17 26 9 14 1007.4 1007.3 0.2
19/12:00pm 20.2 15.1 3.0 32 8.1 WNW 19 28 10 15 1007.9 1007.8 0.2
19/11:30am 21.1 16.4 3.3 31 8.5 WNW 17 32 9 17 1008.5 1008.3 0.2
19/11:00am 19.5 14.4 2.8 33 7.8 NW 19 30 10 16 1008.8 1008.6 0.0
19/10:30am 18.5 14.1 5.0 41 6.5 NNW 17 22 9 12 1009.0 1008.8 0.0
19/10:00am 16.7 13.4 6.2 50 5.1 NNW 13 17 7 9 1009.3 1009.1 0.0
19/09:30am 15.1 12.7 8.8 66 3.2 NNW 11 15 6 8 1009.5 1009.3 0.0
19/09:00am 12.8 11.3 9.1 78 1.9 N 7 11 4 6 1009.8 1009.6 0.2
19/08:30am 10.8 9.2 8.2 84 1.3 NNE 6 9 3 5 1009.8 1009.6 0.2
19/08:00am 8.8 6.9 7.6 92 0.6 NNE 7 9 4 5 1009.8 1009.6 0.2
19/07:30am 7.9 6.8 7.1 95 0.4 WNW 2 7 1 4 1009.5 1009.3 0.2
19/07:00am 6.6 3.6 5.9 95 0.3 NNW 11 13 6 7 1009.3 1009.1 0.2
19/06:30am 7.0 4.0 5.9 93 0.5 NW 11 13 6 7 1009.1 1008.9 0.2
19/06:00am 7.5 4.2 6.6 94 0.4 NW 13 17 7 9 1008.7 1008.5 0.2
19/05:30am 7.8 4.3 7.1 95 0.3 WNW 15 17 8 9 1008.8 1008.6 0.2
19/05:00am 6.7 3.6 5.7 93 0.4 NNW 11 13 6 7 1008.9 1008.7 0.2
19/04:30am 7.8 4.6 6.7 93 0.5 NW 13 17 7 9 1008.9 1008.7 0.2
19/04:00am 7.8 4.6 6.9 94 0.4 WNW 13 15 7 8 1009.1 1008.9 0.2

Other Formats:

Comma delimited format used in spreadsheet applications
http://www.bom.gov.au/fwo/IDV60801/IDV60801.94912.axf

JavaScript Object Notation format (JSON) in row-major order
http://www.bom.gov.au/fwo/IDV60801/IDV60801.94912.json